Time;durP1;ratioP1;P1;durP2;ratioP2;P2;SDS_P1;SDS_P2;PMS_P1;PMS_P2;Temp;Humidity;BMP_temperature;BMP_pressure;BME280_temperature;BME280_humidity;BME280_pressure;Samples;Min_cycle;Max_cycle;Signal;HPM_P1;HPM_P2
2022/12/29 00:01:31;;;;;;;;;;;;;;;13.61;47.55;100037.59;4989492;27;98301;-69
2022/12/29 00:03:57;;;;;;;;;;;;;;;13.62;47.62;100033.78;4983956;27;98824;-68
2022/12/29 00:06:23;;;;;;;;;;;;;;;13.61;47.43;100034.88;4986988;27;98322;-65
2022/12/29 00:08:49;;;;;;;;;;;;;;;13.62;47.75;100036.47;4990961;27;98015;-68
2022/12/29 00:11:22;;;;;;;;;;;;;;;13.63;47.49;100035.38;4988569;27;98381;-69
2022/12/29 00:16:33;;;;;;;;;;;;;;;13.63;47.48;100046.22;4996214;27;98095;-67
2022/12/29 00:18:59;;;;;;;;;;;;;;;13.63;47.79;100040.00;4983872;27;102044;-66
2022/12/29 00:35:12;;;;;;;;;;;;;;;13.55;47.47;99994.63;4996721;27;98019;-66
2022/12/29 00:45:57;;;;;;;;;;;;;;;13.47;47.48;99958.22;4982373;27;98157;-62
2022/12/29 00:51:08;;;;;;;;;;;;;;;13.44;47.89;99948.81;4988373;27;98351;-62
2022/12/29 00:53:34;;;;;;;;;;;;;;;13.44;47.89;99953.41;4967015;27;111991;-67
2022/12/29 00:56:00;;;;;;;;;;;;;;;13.43;47.49;99949.91;4985167;27;105334;-68
2022/12/29 00:58:29;;;;;;;;;;;;;;;13.41;47.89;99952.13;4967588;27;110875;-67
2022/12/29 01:01:08;;;;;;;;;;;;;;;13.41;47.73;99954.03;4971718;27;113554;-67
2022/12/29 01:03:35;;;;;;;;;;;;;;;13.41;47.45;99951.31;4965730;27;99237;-62
2022/12/29 01:06:02;;;;;;;;;;;;;;;13.38;47.78;99955.41;4987340;27;104738;-69
2022/12/29 01:08:29;;;;;;;;;;;;;;;13.38;47.84;99947.28;4983278;27;98219;-68
2022/12/29 01:11:02;;;;;;;;;;;;;;;13.37;47.50;99948.41;4970109;27;98659;-63
2022/12/29 01:13:28;;;;;;;;;;;;;;;13.36;47.65;99944.09;5002965;27;127479;-68
2022/12/29 01:15:54;;;;;;;;;;;;;;;13.37;47.95;99948.41;4983137;27;126944;-70
2022/12/29 01:18:20;;;;;;;;;;;;;;;13.35;47.58;99950.59;4983072;27;98123;-63
2022/12/29 01:20:46;;;;;;;;;;;;;;;13.35;47.67;99953.28;4964078;27;121195;-68
2022/12/29 01:23:12;;;;;;;;;;;;;;;13.36;47.50;99945.97;4983326;27;130981;-66
2022/12/29 01:25:38;;;;;;;;;;;;;;;13.34;47.88;99943.56;4984949;27;127426;-63
2022/12/29 01:28:04;;;;;;;;;;;;;;;13.34;47.73;99945.47;4985782;27;118201;-64
2022/12/29 01:30:30;;;;;;;;;;;;;;;13.33;47.83;99941.97;4969444;27;127770;-63
2022/12/29 01:32:56;;;;;;;;;;;;;;;13.34;47.51;99937.34;4984778;27;98400;-69
2022/12/29 01:35:22;;;;;;;;;;;;;;;13.34;47.52;99945.47;4967489;27;128020;-63
2022/12/29 01:37:48;;;;;;;;;;;;;;;13.34;47.69;99951.69;5019119;27;117720;-63
2022/12/29 01:40:14;;;;;;;;;;;;;;;13.34;47.55;99946.28;4967592;27;128639;-68
2022/12/29 01:42:40;;;;;;;;;;;;;;;13.34;47.62;99943.56;4966420;27;124846;-63
2022/12/29 01:45:10;;;;;;;;;;;;;;;13.34;47.94;99931.94;4982217;27;127591;-69
2022/12/29 01:47:45;;;;;;;;;;;;;;;13.34;47.83;99935.44;4983809;27;115933;-69
2022/12/29 01:50:45;;;;;;;;;;;;;;;13.35;47.90;99928.13;4985671;27;98137;-63
2022/12/29 01:53:13;;;;;;;;;;;;;;;13.34;47.80;99931.94;4972850;27;97866;-63
2022/12/29 01:55:48;;;;;;;;;;;;;;;13.35;47.81;99928.13;4997440;27;97964;-63
2022/12/29 01:58:14;;;;;;;;;;;;;;;13.34;47.56;99923.81;4951179;27;106989;-69
2022/12/29 02:00:40;;;;;;;;;;;;;;;13.34;47.74;99927.34;4948875;27;128528;-62
2022/12/29 02:03:05;;;;;;;;;;;;;;;13.35;47.56;99928.13;4963226;27;113841;-64
2022/12/29 02:05:34;;;;;;;;;;;;;;;13.35;47.91;99920.81;4949200;27;128974;-70
2022/12/29 02:08:00;;;;;;;;;;;;;;;13.36;47.86;99927.03;4966531;27;98340;-68
2022/12/29 02:10:27;;;;;;;;;;;;;;;13.36;47.86;99917.03;4965789;27;100263;-68
2022/12/29 02:12:53;;;;;;;;;;;;;;;13.36;47.78;99917.03;4979152;27;116461;-68
2022/12/29 02:15:20;;;;;;;;;;;;;;;13.37;47.94;99917.81;4964681;27;125407;-64
2022/12/29 02:18:05;;;;;;;;;;;;;;;13.36;47.57;99919.72;4980618;27;100765;-64
2022/12/29 02:21:09;;;;;;;;;;;;;;;13.36;47.84;99919.72;4982227;27;100295;-68
2022/12/29 02:23:53;;;;;;;;;;;;;;;13.37;47.94;99913.22;5001835;27;98212;-69
2022/12/29 02:26:56;;;;;;;;;;;;;;;13.36;47.71;99900.78;4981327;27;99046;-69
2022/12/29 02:29:46;;;;;;;;;;;;;;;13.37;47.90;99902.38;4977628;27;97882;-63
2022/12/29 02:32:35;;;;;;;;;;;;;;;13.37;47.67;99899.66;4980683;27;98308;-64
2022/12/29 02:35:05;;;;;;;;;;;;;;;13.37;47.85;99907.00;4952182;27;117266;-70
2022/12/29 02:37:50;;;;;;;;;;;;;;;13.37;47.98;99905.09;4980135;27;99511;-68
2022/12/29 02:40:34;;;;;;;;;;;;;;;13.37;47.73;99893.47;4969446;27;98042;-64
2022/12/29 02:43:23;;;;;;;;;;;;;;;13.38;47.90;99892.34;4967966;27;99317;-70
2022/12/29 02:45:56;;;;;;;;;;;;;;;13.38;47.78;99887.72;4961577;27;118874;-64
2022/12/29 02:48:46;;;;;;;;;;;;;;;13.38;47.85;99885.03;4979428;27;120108;-64
2022/12/29 02:51:27;;;;;;;;;;;;;;;13.39;47.66;99881.22;4945153;27;98251;-68
2022/12/29 02:56:37;;;;;;;;;;;;;;;13.40;47.91;99898.25;4967452;27;98130;-64
2022/12/29 02:59:03;;;;;;;;;;;;;;;13.40;47.84;99900.97;4980551;27;127438;-70
2022/12/29 03:02:16;;;;;;;;;;;;;;;13.40;47.67;99907.19;4964817;27;119622;-64
2022/12/29 03:05:02;;;;;;;;;;;;;;;13.40;47.79;99898.25;4984296;27;98072;-64
2022/12/29 03:07:41;;;;;;;;;;;;;;;13.42;47.74;99912.31;4982934;27;98363;-69
2022/12/29 03:10:44;;;;;;;;;;;;;;;13.41;47.71;99906.09;4981978;27;98309;-64
2022/12/29 03:16:45;;;;;;;;;;;;;;;13.43;48.03;99905.78;4932875;28;98187;-66
2022/12/29 03:19:21;;;;;;;;;;;;;;;13.42;47.61;99904.97;4945876;27;114816;-68
2022/12/29 03:24:43;;;;;;;;;;;;;;;13.45;48.01;99900.88;4980586;27;97933;-70
2022/12/29 03:27:10;;;;;;;;;;;;;;;13.45;47.92;99898.97;4963882;27;98276;-64
2022/12/29 03:29:41;;;;;;;;;;;;;;;13.46;47.80;99892.44;4960276;27;99823;-69
2022/12/29 03:32:07;;;;;;;;;;;;;;;13.46;47.69;99887.03;4960071;27;101342;-69
2022/12/29 03:34:33;;;;;;;;;;;;;;;13.48;47.84;99889.47;4977777;27;105362;-70
2022/12/29 03:37:04;;;;;;;;;;;;;;;13.48;47.94;99887.56;4965063;27;100512;-69
2022/12/29 03:39:30;;;;;;;;;;;;;;;13.49;47.81;99877.53;4977729;27;128091;-69
2022/12/29 03:42:01;;;;;;;;;;;;;;;13.49;47.62;99870.19;4963248;27;118034;-69
2022/12/29 03:44:37;;;;;;;;;;;;;;;13.50;47.69;99874.50;4979445;27;98228;-65
2022/12/29 03:47:03;;;;;;;;;;;;;;;13.51;47.62;99867.19;4964021;27;97938;-64
2022/12/29 03:49:29;;;;;;;;;;;;;;;13.53;47.80;99875.00;4963719;27;121330;-66
2022/12/29 03:51:55;;;;;;;;;;;;;;;13.53;47.67;99869.59;4972119;27;120783;-70
2022/12/29 03:54:21;;;;;;;;;;;;;;;13.53;47.80;99859.56;4980025;27;117094;-70
2022/12/29 03:56:47;;;;;;;;;;;;;;;13.54;47.51;99861.16;4955706;27;128437;-66
2022/12/29 03:59:13;;;;;;;;;;;;;;;13.55;47.95;99860.06;4980372;27;128311;-71
2022/12/29 04:01:39;;;;;;;;;;;;;;;13.56;48.08;99867.09;4976239;27;109500;-71
2022/12/29 04:04:05;;;;;;;;;;;;;;;13.62;47.65;99867.78;4976477;27;103392;-71
2022/12/29 04:06:30;;;;;;;;;;;;;;;13.70;47.76;99858.94;4964648;27;119228;-65
2022/12/29 04:08:56;;;;;;;;;;;;;;;13.78;47.74;99860.16;4961616;27;129453;-69
2022/12/29 04:11:22;;;;;;;;;;;;;;;13.85;47.64;99864.06;4979223;27;127539;-66
2022/12/29 04:13:48;;;;;;;;;;;;;;;13.90;47.57;99863.94;4987873;27;117186;-69
2022/12/29 04:16:14;;;;;;;;;;;;;;;13.95;48.01;99858.44;4980362;27;98280;-65
2022/12/29 04:18:40;;;;;;;;;;;;;;;13.99;47.72;99858.63;4995759;27;116582;-65
2022/12/29 04:21:06;;;;;;;;;;;;;;;14.02;47.72;99859.91;4962423;27;127670;-70
2022/12/29 04:23:34;;;;;;;;;;;;;;;14.06;47.99;99855.47;4980254;27;101913;-65
2022/12/29 04:26:00;;;;;;;;;;;;;;;14.09;47.65;99852.97;4962508;27;99609;-70
2022/12/29 04:28:26;;;;;;;;;;;;;;;14.11;47.75;99850.75;4964240;27;98020;-69
2022/12/29 04:30:52;;;;;;;;;;;;;;;14.13;47.76;99853.97;4965226;27;102924;-65
2022/12/29 04:33:18;;;;;;;;;;;;;;;14.16;47.80;99849.84;4984301;27;98110;-65
2022/12/29 04:35:44;;;;;;;;;;;;;;;14.18;47.95;99855.75;4977125;27;99926;-65
2022/12/29 04:38:10;;;;;;;;;;;;;;;14.18;48.10;99848.41;4968874;27;113240;-70
2022/12/29 04:40:39;;;;;;;;;;;;;;;14.20;47.73;99850.84;4987868;27;110392;-65
2022/12/29 04:43:05;;;;;;;;;;;;;;;14.20;47.71;99840.78;4983149;27;97880;-65
2022/12/29 04:45:31;;;;;;;;;;;;;;;14.21;47.94;99847.81;4980380;27;115078;-65
2022/12/29 04:47:57;;;;;;;;;;;;;;;14.22;47.75;99840.47;4977160;27;126990;-65
2022/12/29 04:50:23;;;;;;;;;;;;;;;14.23;47.75;99842.91;4984634;27;127395;-70
2022/12/29 04:52:49;;;;;;;;;;;;;;;14.23;47.67;99848.31;4984655;27;117638;-70
2022/12/29 04:55:15;;;;;;;;;;;;;;;14.24;48.13;99851.81;4986681;27;126221;-65
2022/12/29 04:57:40;;;;;;;;;;;;;;;14.24;47.88;99852.63;4972300;27;98376;-65
2022/12/29 05:00:08;;;;;;;;;;;;;;;14.24;48.03;99859.97;5003445;27;128123;-63
2022/12/29 05:02:35;;;;;;;;;;;;;;;14.23;47.84;99866.50;4986874;27;98119;-68
2022/12/29 05:05:01;;;;;;;;;;;;;;;14.24;47.77;99868.09;4971276;27;123968;-67
2022/12/29 05:07:27;;;;;;;;;;;;;;;14.23;48.07;99863.78;4968229;27;127775;-68
2022/12/29 05:09:52;;;;;;;;;;;;;;;14.22;47.98;99865.66;4986253;27;98295;-66
2022/12/29 05:12:18;;;;;;;;;;;;;;;14.22;47.80;99871.09;4985617;27;99588;-66
2022/12/29 05:14:44;;;;;;;;;;;;;;;14.22;47.77;99857.53;4985053;27;124666;-67
2022/12/29 05:17:10;;;;;;;;;;;;;;;14.21;47.82;99855.94;4968270;27;125941;-62
2022/12/29 05:19:38;;;;;;;;;;;;;;;14.21;47.72;99855.94;4983274;27;127879;-62
2022/12/29 05:22:04;;;;;;;;;;;;;;;14.21;48.15;99857.84;4969578;27;99590;-67
2022/12/29 05:24:29;;;;;;;;;;;;;;;14.20;47.99;99854.34;4986428;27;122777;-68
2022/12/29 05:26:55;;;;;;;;;;;;;;;14.21;48.05;99860.56;4983970;27;109588;-63
2022/12/29 05:29:21;;;;;;;;;;;;;;;14.20;48.19;99864.38;4985037;27;127073;-64
2022/12/29 05:31:47;;;;;;;;;;;;;;;14.20;47.71;99858.97;5001538;27;111920;-67
2022/12/29 05:34:13;;;;;;;;;;;;;;;14.18;47.92;99853.03;4980494;27;129094;-66
2022/12/29 05:36:39;;;;;;;;;;;;;;;14.19;47.74;99857.38;4981187;27;127538;-64
2022/12/29 05:39:07;;;;;;;;;;;;;;;14.19;47.85;99850.03;4984189;27;116894;-68
2022/12/29 05:41:33;;;;;;;;;;;;;;;14.19;47.70;99844.63;4986004;27;97939;-68
2022/12/29 05:43:59;;;;;;;;;;;;;;;14.19;48.19;99852.75;4967864;27;125587;-64
2022/12/29 05:46:25;;;;;;;;;;;;;;;14.20;48.17;99853.53;4983094;27;125709;-63
2022/12/29 05:48:51;;;;;;;;;;;;;;;14.20;48.08;99848.13;4966150;27;125235;-64
2022/12/29 05:51:17;;;;;;;;;;;;;;;14.21;47.98;99833.47;4968319;27;117800;-64
2022/12/29 05:53:43;;;;;;;;;;;;;;;14.19;48.09;99828.34;4985047;27;127744;-68
2022/12/29 05:56:09;;;;;;;;;;;;;;;14.19;47.86;99820.22;4969506;27;126546;-64
2022/12/29 05:58:35;;;;;;;;;;;;;;;14.20;48.10;99816.41;5000533;27;128603;-69
2022/12/29 06:01:00;;;;;;;;;;;;;;;14.20;47.74;99804.75;4983402;27;111149;-64
2022/12/29 06:03:26;;;;;;;;;;;;;;;14.20;47.74;99812.88;4974736;27;126512;-70
2022/12/29 06:05:52;;;;;;;;;;;;;;;14.21;47.75;99809.84;4998997;27;128396;-70
2022/12/29 06:08:18;;;;;;;;;;;;;;;14.20;47.77;99810.97;4965049;27;127939;-69
2022/12/29 06:10:44;;;;;;;;;;;;;;;14.21;47.75;99815.28;4983168;27;99010;-65
2022/12/29 06:13:10;;;;;;;;;;;;;;;14.21;48.01;99820.69;4961664;27;131111;-69
2022/12/29 06:15:36;;;;;;;;;;;;;;;14.21;48.13;99823.41;4962111;27;99829;-65
2022/12/29 06:18:02;;;;;;;;;;;;;;;14.21;48.07;99818.00;4962944;27;99241;-70
2022/12/29 06:20:28;;;;;;;;;;;;;;;14.21;48.13;99799.03;4982004;27;118443;-70
2022/12/29 06:22:54;;;;;;;;;;;;;;;14.22;47.86;99803.31;4980735;27;99210;-69
2022/12/29 06:25:20;;;;;;;;;;;;;;;14.22;47.76;99792.47;4959874;27;129072;-65
2022/12/29 06:27:46;;;;;;;;;;;;;;;14.21;47.91;99793.59;4961443;27;128085;-70
2022/12/29 06:30:12;;;;;;;;;;;;;;;14.22;48.09;99789.78;4985592;27;116397;-69
2022/12/29 06:32:38;;;;;;;;;;;;;;;14.24;47.88;99794.91;4980993;27;98311;-69
2022/12/29 06:35:05;;;;;;;;;;;;;;;14.23;47.77;99793.31;4964083;27;128602;-70
2022/12/29 06:37:31;;;;;;;;;;;;;;;14.23;47.74;99799.53;4995241;27;98161;-65
2022/12/29 06:39:57;;;;;;;;;;;;;;;14.24;48.15;99789.47;4996295;27;105009;-70
2022/12/29 06:42:23;;;;;;;;;;;;;;;14.23;47.76;99791.41;4977475;27;118449;-71
2022/12/29 06:44:49;;;;;;;;;;;;;;;14.23;47.83;99799.53;4963989;27;104423;-66
2022/12/29 06:47:15;;;;;;;;;;;;;;;14.23;47.88;99796.03;4981077;27;99476;-71
2022/12/29 06:49:41;;;;;;;;;;;;;;;14.24;47.81;99797.63;4963147;27;114395;-71
2022/12/29 06:52:07;;;;;;;;;;;;;;;14.24;47.89;99803.03;4962016;27;128536;-69
2022/12/29 06:54:33;;;;;;;;;;;;;;;14.23;48.20;99799.53;4980926;27;128258;-71
2022/12/29 06:56:59;;;;;;;;;;;;;;;14.24;47.69;99805.75;4980053;27;128320;-65
2022/12/29 06:59:25;;;;;;;;;;;;;;;14.23;48.11;99804.94;4966492;27;98110;-69
2022/12/29 07:01:51;;;;;;;;;;;;;;;14.23;47.90;99810.38;4979931;27;97923;-66
2022/12/29 07:04:17;;;;;;;;;;;;;;;14.23;47.96;99806.84;4995789;27;99128;-65
2022/12/29 07:06:43;;;;;;;;;;;;;;;14.24;47.67;99798.41;4966823;27;108511;-71
2022/12/29 07:09:09;;;;;;;;;;;;;;;14.25;48.00;99810.03;4964922;27;117114;-66
2022/12/29 07:11:35;;;;;;;;;;;;;;;14.26;48.19;99806.22;4996591;27;127731;-66
2022/12/29 07:14:01;;;;;;;;;;;;;;;14.26;48.11;99800.81;4977273;27;128004;-65
2022/12/29 07:16:29;;;;;;;;;;;;;;;14.27;48.00;99805.13;4996377;27;99094;-66
2022/12/29 07:18:55;;;;;;;;;;;;;;;14.28;48.01;99793.19;4995252;27;98176;-65
2022/12/29 07:21:21;;;;;;;;;;;;;;;14.29;47.67;99802.09;4981188;27;115163;-69
2022/12/29 07:23:47;;;;;;;;;;;;;;;14.30;47.87;99804.50;4977394;27;101706;-70
2022/12/29 07:26:14;;;;;;;;;;;;;;;14.33;47.93;99817.44;4977912;27;127721;-71
2022/12/29 07:28:41;;;;;;;;;;;;;;;14.35;47.92;99814.44;4960348;27;98128;-71
2022/12/29 07:31:15;;;;;;;;;;;;;;;14.36;47.60;99813.31;4981381;27;98397;-71
2022/12/29 07:33:41;;;;;;;;;;;;;;;14.38;47.79;99813.81;4982185;27;99963;-65
2022/12/29 07:36:07;;;;;;;;;;;;;;;14.42;48.11;99817.50;4963156;27;99436;-65
2022/12/29 07:38:33;;;;;;;;;;;;;;;14.44;48.05;99821.50;4979601;27;111009;-70
2022/12/29 07:40:59;;;;;;;;;;;;;;;14.46;47.87;99821.19;4962134;27;100057;-63
2022/12/29 07:43:26;;;;;;;;;;;;;;;14.49;47.66;99824.13;4965680;27;130492;-66
2022/12/29 07:45:52;;;;;;;;;;;;;;;14.53;47.53;99824.31;4981786;27;98856;-69
2022/12/29 07:48:18;;;;;;;;;;;;;;;14.56;47.58;99826.41;4977682;27;117291;-66
2022/12/29 07:50:44;;;;;;;;;;;;;;;14.59;47.89;99825.81;4979774;27;128258;-66
2022/12/29 07:53:10;;;;;;;;;;;;;;;14.64;47.85;99828.38;4963716;27;128302;-65
2022/12/29 07:55:35;;;;;;;;;;;;;;;14.65;47.64;99831.88;4980288;27;98795;-70
2022/12/29 07:58:01;;;;;;;;;;;;;;;14.66;47.89;99828.09;4980422;27;102723;-65
2022/12/29 08:00:27;;;;;;;;;;;;;;;14.66;47.89;99826.16;4964135;27;129468;-70
2022/12/29 08:02:53;;;;;;;;;;;;;;;14.71;47.81;99814.38;4976559;27;127960;-65
2022/12/29 08:05:19;;;;;;;;;;;;;;;14.78;47.52;99828.31;4965461;27;129917;-69
2022/12/29 08:07:45;;;;;;;;;;;;;;;14.88;47.62;99827.25;4965539;27;117025;-71
2022/12/29 08:10:11;;;;;;;;;;;;;;;14.97;47.66;99842.47;4967056;27;121332;-71
2022/12/29 08:12:40;;;;;;;;;;;;;;;15.10;47.14;99831.84;4996693;27;114911;-67
2022/12/29 08:15:07;;;;;;;;;;;;;;;15.20;47.23;99837.75;4978875;27;121202;-66
2022/12/29 08:17:33;;;;;;;;;;;;;;;15.33;47.15;99840.72;4982588;27;110259;-71
2022/12/29 08:19:59;;;;;;;;;;;;;;;15.44;47.28;99844.72;4964964;27;130766;-65
2022/12/29 08:22:25;;;;;;;;;;;;;;;15.53;47.17;99842.06;4964627;27;123083;-71
2022/12/29 08:24:51;;;;;;;;;;;;;;;15.57;47.04;99843.81;4983033;27;121486;-71
2022/12/29 08:27:17;;;;;;;;;;;;;;;15.67;47.01;99848.19;4983325;27;98562;-65
2022/12/29 08:29:43;;;;;;;;;;;;;;;15.81;47.09;99856.22;4999148;27;117987;-65
2022/12/29 08:32:09;;;;;;;;;;;;;;;15.86;46.92;99861.50;4965266;27;121356;-65
2022/12/29 08:34:35;;;;;;;;;;;;;;;15.86;47.07;99854.13;4982782;27;105119;-65
2022/12/29 08:37:01;;;;;;;;;;;;;;;15.85;47.00;99859.91;4981223;27;117518;-65
2022/12/29 08:39:27;;;;;;;;;;;;;;;15.79;47.27;99864.66;4981043;27;128458;-65
2022/12/29 08:41:53;;;;;;;;;;;;;;;15.73;47.33;99865.94;5000204;27;98670;-65
2022/12/29 08:44:19;;;;;;;;;;;;;;;15.68;47.54;99857.97;4982433;27;126420;-65
2022/12/29 08:46:45;;;;;;;;;;;;;;;15.66;47.47;99855.53;4983154;27;118581;-70
2022/12/29 08:49:11;;;;;;;;;;;;;;;15.65;47.52;99853.16;4962304;27;98741;-69
2022/12/29 08:51:37;;;;;;;;;;;;;;;15.63;47.50;99855.34;4991947;27;124609;-65
2022/12/29 08:54:02;;;;;;;;;;;;;;;15.63;47.58;99841.75;4976847;27;126842;-70
2022/12/29 08:56:28;;;;;;;;;;;;;;;15.65;47.39;99845.78;4995982;27;108950;-65
2022/12/29 08:58:54;;;;;;;;;;;;;;;15.70;47.49;99848.34;4960233;27;99448;-65
2022/12/29 09:01:20;;;;;;;;;;;;;;;16.08;47.09;99853.22;4973682;27;98496;-71
2022/12/29 09:03:46;;;;;;;;;;;;;;;16.47;46.34;99840.59;4962709;27;109693;-70
2022/12/29 09:06:13;;;;;;;;;;;;;;;16.77;46.58;99838.78;4978774;27;116869;-70
2022/12/29 09:08:39;;;;;;;;;;;;;;;16.95;46.57;99831.41;4992312;27;98114;-71
2022/12/29 09:11:14;;;;;;;;;;;;;;;17.11;46.53;99834.38;4972625;27;127241;-71
2022/12/29 09:13:40;;;;;;;;;;;;;;;17.35;46.27;99826.44;4976923;27;107830;-66
2022/12/29 09:16:06;;;;;;;;;;;;;;;17.68;46.10;99820.31;4997270;27;98244;-66
2022/12/29 09:18:32;;;;;;;;;;;;;;;17.94;46.09;99839.28;4978536;27;99860;-65
2022/12/29 09:21:03;;;;;;;;;;;;;;;18.03;46.19;99828.28;4961302;27;131649;-69
2022/12/29 09:23:29;;;;;;;;;;;;;;;18.12;46.26;99826.31;4961968;27;123108;-70
2022/12/29 09:25:55;;;;;;;;;;;;;;;18.34;46.19;99833.34;4975893;27;117402;-69
2022/12/29 09:28:21;;;;;;;;;;;;;;;18.35;46.19;99835.75;4957883;27;115129;-65
2022/12/29 09:30:47;;;;;;;;;;;;;;;18.25;46.39;99835.34;4962907;27;100006;-71
2022/12/29 09:33:13;;;;;;;;;;;;;;;18.14;46.53;99843.13;4958633;27;110862;-69
2022/12/29 09:35:50;;;;;;;;;;;;;;;18.04;46.93;99857.19;4962042;27;98054;-71
2022/12/29 09:38:16;;;;;;;;;;;;;;;17.97;46.93;99851.44;4975897;27;117070;-65
2022/12/29 09:40:44;;;;;;;;;;;;;;;17.96;46.63;99860.75;4962080;27;98120;-69
2022/12/29 09:43:25;;;;;;;;;;;;;;;17.87;47.03;99847.16;4956953;27;99822;-71
2022/12/29 09:46:09;;;;;;;;;;;;;;;17.75;46.89;99847.88;4994704;27;98126;-65
2022/12/29 09:48:39;;;;;;;;;;;;;;;17.75;46.90;99856.06;4992959;27;103941;-65
2022/12/29 09:51:11;;;;;;;;;;;;;;;17.74;46.83;99848.19;4969827;27;120600;-66
2022/12/29 09:53:44;;;;;;;;;;;;;;;17.66;46.87;99837.00;4982026;27;97916;-65
2022/12/29 09:56:21;;;;;;;;;;;;;;;17.65;47.00;99829.19;4984400;27;98713;-65
2022/12/29 09:59:14;;;;;;;;;;;;;;;17.62;47.05;99829.81;4975707;27;117658;-69
2022/12/29 10:01:52;;;;;;;;;;;;;;;17.60;47.01;99834.78;4964568;27;109034;-70
2022/12/29 10:04:18;;;;;;;;;;;;;;;17.60;46.95;99832.06;4993962;27;99613;-65
2022/12/29 10:07:01;;;;;;;;;;;;;;;17.60;46.77;99832.06;4987943;27;116494;-65
2022/12/29 10:09:42;;;;;;;;;;;;;;;17.61;46.84;99818.13;4985328;27;121332;-71
2022/12/29 10:12:13;;;;;;;;;;;;;;;17.69;46.87;99838.28;5001744;27;98522;-70
2022/12/29 10:14:46;;;;;;;;;;;;;;;17.90;46.51;99835.63;4998367;27;97996;-69
2022/12/29 10:17:43;;;;;;;;;;;;;;;17.95;46.37;99827.22;5001039;27;98477;-68
2022/12/29 10:20:16;;;;;;;;;;;;;;;18.01;46.63;99828.63;4980065;27;100049;-65
2022/12/29 10:23:10;;;;;;;;;;;;;;;17.95;46.71;99834.63;4988205;27;98124;-71
2022/12/29 10:25:38;;;;;;;;;;;;;;;17.91;46.67;99827.09;4988799;27;98954;-66
2022/12/29 10:28:24;;;;;;;;;;;;;;;17.99;46.62;99822.72;4309666;27;10000380;-66
2022/12/29 10:30:52;;;;;;;;;;;;;;;18.19;46.44;99817.59;4983749;27;99137;-65
2022/12/29 10:33:32;;;;;;;;;;;;;;;18.12;46.49;99818.94;4966558;27;99670;-66
2022/12/29 10:35:58;;;;;;;;;;;;;;;18.09;46.74;99811.41;5000801;27;98120;-66
2022/12/29 10:38:38;;;;;;;;;;;;;;;18.06;46.63;99820.25;4994570;27;98496;-69
2022/12/29 10:41:21;;;;;;;;;;;;;;;18.02;46.69;99813.88;4995857;27;98046;-70
2022/12/29 10:43:48;;;;;;;;;;;;;;;18.03;46.82;99804.56;4980941;27;97990;-66
2022/12/29 10:46:17;;;;;;;;;;;;;;;18.01;46.73;99793.19;4986390;27;98447;-65
2022/12/29 10:48:46;;;;;;;;;;;;;;;18.02;46.69;99786.59;4984041;27;99041;-71
2022/12/29 10:51:16;;;;;;;;;;;;;;;18.03;46.72;99801.03;4960438;27;100475;-70
2022/12/29 10:53:47;;;;;;;;;;;;;;;17.98;46.74;99791.13;4958787;27;107614;-70
2022/12/29 10:56:27;;;;;;;;;;;;;;;17.96;46.98;99789.84;4942972;27;119973;-70
2022/12/29 10:58:53;;;;;;;;;;;;;;;17.98;46.96;99790.34;4960154;27;97979;-70
2022/12/29 11:01:20;;;;;;;;;;;;;;;17.97;46.87;99786.03;4942065;27;117043;-69
2022/12/29 11:03:49;;;;;;;;;;;;;;;18.00;46.77;99788.88;4961513;27;98328;-65
2022/12/29 11:06:24;;;;;;;;;;;;;;;18.01;46.79;99792.41;4993004;27;99751;-65
2022/12/29 11:08:57;;;;;;;;;;;;;;;18.03;46.71;99780.00;4960347;27;98829;-65
2022/12/29 11:11:32;;;;;;;;;;;;;;;17.87;46.98;99795.38;4991178;27;98268;-70
2022/12/29 11:14:17;;;;;;;;;;;;;;;17.74;47.28;99780.06;4942477;27;98170;-67
2022/12/29 11:16:44;;;;;;;;;;;;;;;17.62;47.22;99776.13;4964181;27;113065;-70
2022/12/29 11:19:24;;;;;;;;;;;;;;;17.54;47.21;99776.97;4942771;27;98405;-69
2022/12/29 11:21:50;;;;;;;;;;;;;;;17.43;47.33;99773.03;4958286;27;105824;-66
2022/12/29 11:24:22;;;;;;;;;;;;;;;17.36;47.43;99773.53;4961294;27;98065;-65
2022/12/29 11:26:50;;;;;;;;;;;;;;;17.30;47.56;99774.09;4959551;27;98968;-69
2022/12/29 11:29:17;;;;;;;;;;;;;;;17.29;47.53;99759.69;4940158;27;98234;-66
2022/12/29 11:31:50;;;;;;;;;;;;;;;17.30;47.42;99768.63;4988136;27;103551;-66
2022/12/29 11:34:46;;;;;;;;;;;;;;;17.31;47.43;99779.19;4977968;27;98365;-69
2022/12/29 11:37:13;;;;;;;;;;;;;;;17.40;47.15;99760.88;4950296;27;100188;-66
2022/12/29 11:39:59;;;;;;;;;;;;;;;17.50;46.96;99756.19;4963400;27;121951;-66
2022/12/29 11:42:36;;;;;;;;;;;;;;;17.52;47.15;99760.16;4971336;27;98328;-71
2022/12/29 11:45:07;;;;;;;;;;;;;;;17.59;46.95;99754.97;4948304;27;102215;-66
2022/12/29 11:47:33;;;;;;;;;;;;;;;17.71;46.80;99753.47;4960199;27;98036;-66
2022/12/29 11:50:04;;;;;;;;;;;;;;;17.81;46.80;99756.63;4966253;27;127943;-71
2022/12/29 11:52:34;;;;;;;;;;;;;;;17.90;46.73;99754.63;4975943;27;98040;-70
2022/12/29 11:55:01;;;;;;;;;;;;;;;17.89;46.89;99757.69;4980305;27;98785;-70
2022/12/29 11:57:27;;;;;;;;;;;;;;;17.91;46.91;99760.88;4966140;27;98260;-69
2022/12/29 11:59:55;;;;;;;;;;;;;;;17.87;46.93;99757.22;4962491;27;128194;-66
2022/12/29 12:02:31;;;;;;;;;;;;;;;17.86;46.79;99753.69;4977131;27;99124;-68
2022/12/29 12:05:30;;;;;;;;;;;;;;;17.80;46.90;99755.03;4998298;27;98279;-70
2022/12/29 12:08:14;;;;;;;;;;;;;;;17.77;46.98;99754.91;4980860;27;98323;-69
2022/12/29 12:11:03;;;;;;;;;;;;;;;17.81;46.95;99747.66;4962103;27;115992;-66
2022/12/29 12:13:42;;;;;;;;;;;;;;;17.83;47.02;99751.63;4995358;27;97858;-66
2022/12/29 12:16:14;;;;;;;;;;;;;;;17.93;46.93;99761.34;4978224;27;98524;-65
2022/12/29 12:18:49;;;;;;;;;;;;;;;17.97;46.78;99754.09;4976544;27;102932;-70
2022/12/29 12:21:39;;;;;;;;;;;;;;;18.00;46.67;99736.25;4976849;27;100042;-69
2022/12/29 12:24:46;;;;;;;;;;;;;;;17.98;46.81;99738.53;4961515;27;98305;-65
2022/12/29 12:27:19;;;;;;;;;;;;;;;17.98;46.71;99738.53;4912665;27;98123;-66
2022/12/29 12:30:00;;;;;;;;;;;;;;;17.95;46.93;99723.63;4960733;27;98081;-65
2022/12/29 12:32:42;;;;;;;;;;;;;;;17.94;46.93;99729.44;4993472;27;98233;-68
2022/12/29 12:35:16;;;;;;;;;;;;;;;17.94;46.81;99735.69;4998691;27;98350;-70
2022/12/29 12:37:57;;;;;;;;;;;;;;;17.94;46.83;99727.50;4977759;27;98314;-65
2022/12/29 12:40:26;;;;;;;;;;;;;;;17.95;47.00;99725.56;4991416;27;97987;-65
2022/12/29 12:42:58;;;;;;;;;;;;;;;17.94;46.77;99730.22;4993599;27;98276;-69
2022/12/29 12:46:02;;;;;;;;;;;;;;;17.95;47.01;99733.75;4994844;27;98198;-65
2022/12/29 12:48:53;;;;;;;;;;;;;;;17.96;46.93;99729.88;4993715;27;98335;-70
2022/12/29 12:51:33;;;;;;;;;;;;;;;17.99;46.84;99713.66;5009282;27;99856;-65
2022/12/29 12:54:15;;;;;;;;;;;;;;;18.01;46.98;99737.88;4965649;27;99280;-69
2022/12/29 12:56:56;;;;;;;;;;;;;;;18.00;46.91;99728.06;4978081;27;98255;-69
2022/12/29 12:59:31;;;;;;;;;;;;;;;17.99;46.91;99721.03;4991837;27;99633;-69
2022/12/29 13:02:20;;;;;;;;;;;;;;;17.95;46.93;99729.09;4991936;27;115044;-68
2022/12/29 13:05:11;;;;;;;;;;;;;;;17.95;46.92;99728.28;4993192;27;98056;-65
2022/12/29 13:08:02;;;;;;;;;;;;;;;17.90;47.05;99724.63;4993991;27;98125;-70
2022/12/29 13:10:41;;;;;;;;;;;;;;;17.88;47.06;99739.72;4993234;27;98704;-70
2022/12/29 13:13:35;;;;;;;;;;;;;;;17.84;47.14;99738.78;4975493;27;99642;-70
2022/12/29 13:16:26;;;;;;;;;;;;;;;17.79;47.11;99739.78;4992605;27;98134;-66
2022/12/29 13:19:17;;;;;;;;;;;;;;;17.75;47.18;99738.06;4974707;27;113976;-69
2022/12/29 13:22:11;;;;;;;;;;;;;;;17.72;47.12;99735.97;4993635;27;98615;-71
2022/12/29 13:24:41;;;;;;;;;;;;;;;17.67;47.12;99732.31;4975919;27;99590;-69
2022/12/29 13:27:27;;;;;;;;;;;;;;;17.63;47.11;99734.13;4994372;27;98121;-71
2022/12/29 13:30:09;;;;;;;;;;;;;;;17.61;47.41;99730.94;4974043;27;98138;-66
2022/12/29 13:32:58;;;;;;;;;;;;;;;17.59;47.35;99754.19;4990568;27;98444;-67
2022/12/29 13:35:32;;;;;;;;;;;;;;;17.55;47.23;99747.81;4955192;27;99887;-69
2022/12/29 13:38:24;;;;;;;;;;;;;;;17.51;47.36;99741.41;4996251;27;99321;-65